createdAt,value
2022-10-01T00:00:05.655Z,40.52
2022-10-01T00:00:32.676Z,40.40
2022-10-01T00:00:55.609Z,40.30
2022-10-01T00:01:19.941Z,40.34
2022-10-01T00:01:41.609Z,40.50
2022-10-01T00:02:04.310Z,40.53
2022-10-01T00:02:25.979Z,40.23
2022-10-01T00:02:47.849Z,40.38
2022-10-01T00:03:09.557Z,40.24
2022-10-01T00:03:32.573Z,40.40
2022-10-01T00:03:54.801Z,40.34
2022-10-01T00:04:16.372Z,40.42
2022-10-01T00:04:38.131Z,40.36
2022-10-01T00:05:01.216Z,40.36
2022-10-01T00:05:22.790Z,40.45
2022-10-01T00:05:44.755Z,40.45
2022-10-01T00:06:09.423Z,40.48
2022-10-01T00:06:31.296Z,40.47
2022-10-01T00:06:53.854Z,40.58
2022-10-01T00:07:15.558Z,40.77
2022-10-01T00:07:38.345Z,40.70
2022-10-01T00:08:00.151Z,40.71
2022-10-01T00:08:22.677Z,40.89
2022-10-01T00:08:46.891Z,40.99
2022-10-01T00:09:08.456Z,40.88
2022-10-01T00:09:30.632Z,40.76
2022-10-01T00:09:53.133Z,40.86
2022-10-01T00:10:15.797Z,41.22
2022-10-01T00:10:41.769Z,41.42
2022-10-01T00:11:07.757Z,41.48
2022-10-01T00:11:31.310Z,41.46
2022-10-01T00:11:53.420Z,41.45
2022-10-01T00:12:15.716Z,41.34
2022-10-01T00:12:38.615Z,41.36
2022-10-01T00:13:00.155Z,41.24
2022-10-01T00:13:22.078Z,41.16
2022-10-01T00:13:44.815Z,41.13
2022-10-01T00:14:06.409Z,41.14
2022-10-01T00:14:29.442Z,41.13
2022-10-01T00:14:50.991Z,41.11
2022-10-01T00:15:14.412Z,41.25
2022-10-01T00:15:39.380Z,41.27
2022-10-01T00:16:05.633Z,40.97
2022-10-01T00:16:30.786Z,41.17
2022-10-01T00:16:53.176Z,40.88
2022-10-01T00:17:14.824Z,40.94
2022-10-01T00:17:37.017Z,41.04
2022-10-01T00:17:59.543Z,41.07
2022-10-01T00:18:21.112Z,41.06
2022-10-01T00:18:44.264Z,41.00
2022-10-01T00:19:05.866Z,40.84
2022-10-01T00:19:28.605Z,41.07
2022-10-01T00:19:50.320Z,41.37
2022-10-01T00:20:14.701Z,41.16
2022-10-01T00:20:40.099Z,40.87
2022-10-01T00:21:06.736Z,41.19
2022-10-01T00:21:31.510Z,41.13
2022-10-01T00:21:53.322Z,41.36
2022-10-01T00:22:14.903Z,41.19
2022-10-01T00:22:37.776Z,41.09
2022-10-01T00:22:59.343Z,41.03
2022-10-01T00:23:20.950Z,41.12
2022-10-01T00:23:42.591Z,40.98
2022-10-01T00:24:06.955Z,40.98
2022-10-01T00:24:29.661Z,40.85
2022-10-01T00:24:51.264Z,40.96
2022-10-01T00:25:13.149Z,40.89
2022-10-01T00:25:34.812Z,40.85
2022-10-01T00:25:56.356Z,40.75
2022-10-01T00:26:21.077Z,40.95
2022-10-01T00:26:42.889Z,40.97
2022-10-01T00:27:04.459Z,41.06
2022-10-01T00:27:26.622Z,41.02
2022-10-01T00:27:49.385Z,41.11
2022-10-01T00:28:12.111Z,41.34
2022-10-01T00:28:33.787Z,40.90
2022-10-01T00:28:56.827Z,40.98
2022-10-01T00:29:19.567Z,40.96
2022-10-01T00:29:41.215Z,41.03
2022-10-01T00:30:04.379Z,41.23
2022-10-01T00:30:25.912Z,41.00
2022-10-01T00:30:47.971Z,41.03
2022-10-01T00:31:11.164Z,40.99
2022-10-01T00:32:15.969Z,40.77
2022-10-01T00:32:38.939Z,41.05
2022-10-01T00:33:00.526Z,41.18
2022-10-01T00:33:22.048Z,41.59
2022-10-01T00:33:43.624Z,41.78
2022-10-01T00:34:06.432Z,42.01
2022-10-01T00:34:28.267Z,41.51
2022-10-01T00:34:49.828Z,41.66
2022-10-01T00:35:12.236Z,41.76
2022-10-01T00:35:34.736Z,41.74
2022-10-01T00:35:56.881Z,41.71
2022-10-01T00:36:18.524Z,41.55
2022-10-01T00:36:40.063Z,41.52
2022-10-01T00:37:01.840Z,41.79
2022-10-01T00:37:24.432Z,41.76
2022-10-01T00:37:47.788Z,41.88
2022-10-01T00:38:09.563Z,42.28
2022-10-01T00:38:31.794Z,42.95
2022-10-01T00:38:59.566Z,42.77
2022-10-01T00:39:21.582Z,42.97
2022-10-01T00:39:43.753Z,42.83
2022-10-01T00:40:07.738Z,43.01
2022-10-01T00:40:30.855Z,42.87
2022-10-01T00:40:53.378Z,43.01
2022-10-01T00:41:18.193Z,43.14
2022-10-01T00:41:40.317Z,43.48
2022-10-01T00:42:02.493Z,43.68
2022-10-01T00:42:26.658Z,43.33
2022-10-01T00:42:48.533Z,42.89
2022-10-01T00:43:24.590Z,43.71
2022-10-01T00:43:51.891Z,44.15
2022-10-01T00:44:34.609Z,44.09
2022-10-01T00:44:58.863Z,44.10
2022-10-01T00:45:20.470Z,44.29
2022-10-01T00:45:42.383Z,44.26
2022-10-01T00:46:09.565Z,44.38
2022-10-01T00:46:40.134Z,44.42
2022-10-01T00:47:08.396Z,44.83
2022-10-01T00:47:34.937Z,45.19
2022-10-01T00:47:59.055Z,45.11
2022-10-01T00:48:23.359Z,44.86
2022-10-01T00:48:52.548Z,44.69
2022-10-01T00:49:19.300Z,44.66
2022-10-01T00:49:42.857Z,44.43
2022-10-01T00:50:11.599Z,44.67
2022-10-01T00:50:38.021Z,44.94
2022-10-01T00:50:59.895Z,45.15
2022-10-01T00:51:21.805Z,45.28
2022-10-01T00:51:46.800Z,45.30
2022-10-01T00:52:14.684Z,45.01
2022-10-01T00:52:41.276Z,45.65
2022-10-01T00:53:06.330Z,46.31
2022-10-01T00:53:28.343Z,46.63
2022-10-01T00:53:51.217Z,46.56
2022-10-01T00:54:16.717Z,46.78
2022-10-01T00:54:43.581Z,46.64
2022-10-01T00:55:08.017Z,46.85
2022-10-01T00:55:34.064Z,46.48
2022-10-01T00:55:58.091Z,46.55
2022-10-01T00:56:19.836Z,46.55
2022-10-01T00:56:42.168Z,46.33
2022-10-01T00:57:07.820Z,46.55
2022-10-01T00:57:30.698Z,46.13
2022-10-01T00:57:52.481Z,46.25
2022-10-01T00:58:15.346Z,46.20
2022-10-01T00:58:39.332Z,46.46
2022-10-01T00:59:01.736Z,46.52
2022-10-01T00:59:24.140Z,46.31
2022-10-01T00:59:47.169Z,46.42
2022-10-01T01:00:13.107Z,46.54
2022-10-01T01:00:36.561Z,46.90
2022-10-01T01:00:58.209Z,46.52
2022-10-01T01:01:20.493Z,46.82
2022-10-01T01:01:42.222Z,47.19
2022-10-01T01:02:04.981Z,47.29
2022-10-01T01:02:26.690Z,47.19
2022-10-01T01:02:49.850Z,46.98
2022-10-01T01:03:14.135Z,47.45
2022-10-01T01:03:36.640Z,47.53
2022-10-01T01:03:58.815Z,47.65
2022-10-01T01:04:20.403Z,47.39
2022-10-01T01:04:42.331Z,47.26
2022-10-01T01:05:06.061Z,47.39
2022-10-01T01:05:27.645Z,47.46
2022-10-01T01:05:50.153Z,47.25
2022-10-01T01:06:11.729Z,46.67
2022-10-01T01:06:34.253Z,46.63
2022-10-01T01:06:59.520Z,47.36
2022-10-01T01:07:22.181Z,47.32
2022-10-01T01:07:50.328Z,47.16
2022-10-01T01:08:12.005Z,47.17
2022-10-01T01:08:33.984Z,47.73
2022-10-01T01:08:56.113Z,47.77
2022-10-01T01:09:17.677Z,47.36
2022-10-01T01:09:45.257Z,47.31
2022-10-01T01:10:09.264Z,47.69
2022-10-01T01:10:39.561Z,48.04
2022-10-01T01:11:07.618Z,48.57
2022-10-01T01:11:43.052Z,48.30
2022-10-01T01:12:15.246Z,48.44
2022-10-01T01:12:56.744Z,49.11
2022-10-01T01:13:24.948Z,49.17
2022-10-01T01:13:55.813Z,49.16
2022-10-01T01:14:23.243Z,49.50
2022-10-01T01:14:56.019Z,49.51
2022-10-01T01:15:24.860Z,48.50
2022-10-01T01:15:53.894Z,48.93
2022-10-01T01:16:24.260Z,48.80
2022-10-01T01:16:52.238Z,48.53
2022-10-01T01:17:21.423Z,48.56
2022-10-01T01:17:52.758Z,48.05
2022-10-01T01:18:23.592Z,48.31
2022-10-01T01:18:54.377Z,48.91
2022-10-01T01:19:34.135Z,48.35
2022-10-01T01:20:13.021Z,48.28
2022-10-01T01:20:49.868Z,48.40
2022-10-01T01:21:18.293Z,48.26
2022-10-01T01:21:45.154Z,48.63
2022-10-01T01:22:09.260Z,48.50
2022-10-01T01:22:35.097Z,48.89
2022-10-01T01:23:09.269Z,49.28
2022-10-01T01:23:47.350Z,48.97
2022-10-01T01:24:29.992Z,49.03
2022-10-01T01:24:57.892Z,49.25
2022-10-01T01:25:22.001Z,49.15
2022-10-01T01:25:47.803Z,49.05
2022-10-01T01:26:22.610Z,49.24
2022-10-01T01:27:13.621Z,50.24
2022-10-01T01:27:40.752Z,50.13
2022-10-01T01:28:17.682Z,50.08
2022-10-01T01:28:43.887Z,49.94
2022-10-01T01:29:13.542Z,50.30
2022-10-01T01:29:42.307Z,50.06
2022-10-01T01:30:08.247Z,50.01
2022-10-01T01:30:31.836Z,49.87
2022-10-01T01:31:03.944Z,50.02
2022-10-01T01:31:30.596Z,50.05
2022-10-01T01:31:58.214Z,50.35
2022-10-01T01:32:25.930Z,50.46
2022-10-01T01:32:54.210Z,50.47
2022-10-01T01:33:19.161Z,50.39
2022-10-01T01:33:45.832Z,50.41
2022-10-01T01:34:12.273Z,50.03
2022-10-01T01:34:36.058Z,49.93
2022-10-01T01:35:02.821Z,50.20
2022-10-01T01:35:32.160Z,50.11
2022-10-01T01:35:58.429Z,50.13
2022-10-01T01:36:26.282Z,50.76
2022-10-01T01:36:55.681Z,50.90
2022-10-01T01:37:22.453Z,50.61
2022-10-01T01:37:52.192Z,50.71
2022-10-01T01:38:19.754Z,50.85
2022-10-01T01:38:46.365Z,50.72
2022-10-01T01:39:11.759Z,50.61
2022-10-01T01:39:34.424Z,50.54
2022-10-01T01:39:58.627Z,50.44
2022-10-01T01:40:22.724Z,50.74
2022-10-01T01:40:51.325Z,50.46
2022-10-01T01:41:15.532Z,50.42
2022-10-01T01:41:40.862Z,50.33
2022-10-01T01:42:07.209Z,50.40
2022-10-01T01:42:31.924Z,50.46
2022-10-01T01:42:55.664Z,50.72
2022-10-01T01:43:24.089Z,50.59
2022-10-01T01:43:49.466Z,50.57
2022-10-01T01:44:12.787Z,50.47
2022-10-01T01:44:39.821Z,49.90
2022-10-01T01:45:03.415Z,50.25
2022-10-01T01:45:30.491Z,50.21
2022-10-01T01:45:54.955Z,50.76
2022-10-01T01:46:18.365Z,50.59
2022-10-01T01:46:43.462Z,50.67
2022-10-01T01:47:09.641Z,51.22
2022-10-01T01:47:34.409Z,51.72
2022-10-01T01:47:59.064Z,51.78
2022-10-01T01:48:22.346Z,52.06
2022-10-01T01:48:47.433Z,51.28
2022-10-01T01:49:10.314Z,51.18
2022-10-01T01:49:32.712Z,51.45
2022-10-01T01:49:54.338Z,51.30
2022-10-01T01:50:17.144Z,51.19
2022-10-01T01:50:46.469Z,51.01
2022-10-01T01:51:12.381Z,51.03
2022-10-01T01:51:42.417Z,51.19
2022-10-01T01:52:09.209Z,51.41
2022-10-01T01:52:30.971Z,51.65
2022-10-01T01:52:53.404Z,51.81
2022-10-01T01:53:15.536Z,52.00
2022-10-01T01:53:38.406Z,51.62
2022-10-01T01:54:00.410Z,51.56
2022-10-01T01:54:22.287Z,51.66
2022-10-01T01:54:46.797Z,51.26
2022-10-01T01:55:09.706Z,51.09
2022-10-01T01:55:33.181Z,50.48
2022-10-01T01:55:56.821Z,50.43
2022-10-01T01:56:18.376Z,50.29
2022-10-01T01:56:39.961Z,50.65
2022-10-01T01:57:04.192Z,51.56
2022-10-01T01:57:26.304Z,51.38
2022-10-01T01:57:47.875Z,51.30
2022-10-01T01:58:09.453Z,51.29
2022-10-01T01:58:35.256Z,51.54
2022-10-01T01:59:02.755Z,51.89
2022-10-01T01:59:25.407Z,51.50
2022-10-01T01:59:47.319Z,51.23
2022-10-01T02:00:12.263Z,50.80
2022-10-01T02:00:33.839Z,51.03
2022-10-01T02:00:55.450Z,50.91
2022-10-01T02:01:39.273Z,50.84
2022-10-01T02:02:02.284Z,50.60
2022-10-01T02:02:28.069Z,50.53
2022-10-01T02:02:52.342Z,50.93
2022-10-01T02:03:13.960Z,50.77
2022-10-01T02:03:35.698Z,51.02
2022-10-01T02:03:58.552Z,51.19
2022-10-01T02:04:24.141Z,50.98
2022-10-01T02:04:50.258Z,50.87
2022-10-01T02:05:19.260Z,51.14
2022-10-01T02:05:55.739Z,51.54
2022-10-01T02:06:26.569Z,51.38
2022-10-01T02:07:05.496Z,50.97
2022-10-01T02:08:05.640Z,51.03
2022-10-01T02:08:37.387Z,51.21
2022-10-01T02:09:05.875Z,51.50
2022-10-01T02:09:30.796Z,51.77
2022-10-01T02:10:05.441Z,51.50
2022-10-01T02:10:41.185Z,51.19
2022-10-01T02:11:16.111Z,51.37
2022-10-01T02:11:45.296Z,51.52
2022-10-01T02:12:15.943Z,51.50
2022-10-01T02:12:48.024Z,51.39
2022-10-01T02:13:25.152Z,51.52
2022-10-01T02:14:01.175Z,51.53
2022-10-01T02:14:30.851Z,51.82
2022-10-01T02:14:57.597Z,51.76
2022-10-01T02:15:24.996Z,51.59
2022-10-01T02:15:59.612Z,51.92
2022-10-01T02:16:27.499Z,51.91
2022-10-01T02:16:59.622Z,52.07
2022-10-01T02:17:29.462Z,52.03
2022-10-01T02:17:57.530Z,52.35
2022-10-01T02:18:30.082Z,52.18
2022-10-01T02:18:59.984Z,51.85
2022-10-01T02:19:38.698Z,52.28
2022-10-01T02:20:07.161Z,52.46
2022-10-01T02:20:35.309Z,52.35
2022-10-01T02:21:03.889Z,52.00
2022-10-01T02:21:32.157Z,51.79
2022-10-01T02:22:00.719Z,51.90
2022-10-01T02:22:28.480Z,52.39
2022-10-01T02:22:56.954Z,52.53
2022-10-01T02:23:25.485Z,52.33
2022-10-01T02:23:54.089Z,52.07
2022-10-01T02:24:27.793Z,52.27
2022-10-01T02:24:53.536Z,52.21
2022-10-01T02:25:18.522Z,52.32
2022-10-01T02:25:46.529Z,52.70
2022-10-01T02:26:12.921Z,52.48
2022-10-01T02:26:38.059Z,52.63
2022-10-01T02:27:03.226Z,52.67
2022-10-01T02:27:30.219Z,53.09
2022-10-01T02:27:56.027Z,53.59
2022-10-01T02:28:21.036Z,53.75
2022-10-01T02:28:44.309Z,54.02
2022-10-01T02:29:13.097Z,53.91
2022-10-01T02:29:37.858Z,53.60
2022-10-01T02:30:06.461Z,53.28
2022-10-01T02:30:30.479Z,53.21
2022-10-01T02:30:54.745Z,53.16
2022-10-01T02:31:20.996Z,53.73
2022-10-01T02:31:43.421Z,53.61
2022-10-01T02:32:06.361Z,53.33
2022-10-01T02:32:30.803Z,53.51
2022-10-01T02:32:55.481Z,53.06
2022-10-01T02:33:21.799Z,53.22
2022-10-01T02:33:46.501Z,53.38
2022-10-01T02:34:12.881Z,53.53
2022-10-01T02:34:34.681Z,53.22
2022-10-01T02:34:57.319Z,53.28
2022-10-01T02:35:20.142Z,53.17
2022-10-01T02:35:44.984Z,53.22
2022-10-01T02:36:09.233Z,53.45
2022-10-01T02:36:32.978Z,53.57
2022-10-01T02:36:56.915Z,53.61
2022-10-01T02:37:22.647Z,53.73
2022-10-01T02:37:49.033Z,53.94
2022-10-01T02:38:12.722Z,53.64
2022-10-01T02:38:38.392Z,53.44
2022-10-01T02:39:03.689Z,53.62
2022-10-01T02:39:29.285Z,53.54
2022-10-01T02:39:53.085Z,53.46
2022-10-01T02:40:18.678Z,53.45
2022-10-01T02:40:44.863Z,53.22
2022-10-01T02:41:09.571Z,53.52
2022-10-01T02:41:34.617Z,53.43
2022-10-01T02:41:59.241Z,53.09
2022-10-01T02:42:25.519Z,53.55
2022-10-01T02:42:52.044Z,53.33
2022-10-01T02:43:18.292Z,53.29
2022-10-01T02:43:48.093Z,53.28
2022-10-01T02:44:15.033Z,53.35
2022-10-01T02:44:40.180Z,53.24
2022-10-01T02:45:08.167Z,53.30
2022-10-01T02:45:35.037Z,53.01
2022-10-01T02:46:02.633Z,52.82
2022-10-01T02:46:29.024Z,52.85
2022-10-01T02:46:58.050Z,53.40
2022-10-01T02:47:24.993Z,52.95
2022-10-01T02:47:51.699Z,53.10
2022-10-01T02:48:17.402Z,53.15
2022-10-01T02:48:39.936Z,53.52
2022-10-01T02:49:02.805Z,53.26
2022-10-01T02:49:29.806Z,53.93
2022-10-01T02:49:52.943Z,53.13
2022-10-01T02:50:15.914Z,52.71
2022-10-01T02:50:43.843Z,52.92
2022-10-01T02:51:18.683Z,52.66
2022-10-01T02:51:50.947Z,52.65
2022-10-01T02:52:20.885Z,52.75
2022-10-01T02:52:46.090Z,53.03
2022-10-01T02:53:14.101Z,53.23
2022-10-01T02:53:44.068Z,53.36
2022-10-01T02:54:13.256Z,53.19
2022-10-01T02:54:38.513Z,52.78
2022-10-01T02:55:04.131Z,53.68
2022-10-01T02:55:30.933Z,53.50
2022-10-01T02:55:53.882Z,53.33
2022-10-01T02:56:37.027Z,53.61
2022-10-01T02:57:17.599Z,53.33
2022-10-01T02:57:39.595Z,53.27
2022-10-01T02:58:02.498Z,53.14
2022-10-01T02:58:24.105Z,53.09
2022-10-01T02:58:47.288Z,53.29
2022-10-01T02:59:08.942Z,53.32
2022-10-01T02:59:31.923Z,52.50
2022-10-01T02:59:55.243Z,52.24
2022-10-01T03:00:21.188Z,52.83
2022-10-01T03:00:42.900Z,52.94
2022-10-01T03:01:04.480Z,52.69
2022-10-01T03:01:26.341Z,52.32
2022-10-01T03:01:48.294Z,52.52
2022-10-01T03:02:10.199Z,52.64
2022-10-01T03:02:33.323Z,53.13
2022-10-01T03:02:55.050Z,52.85
2022-10-01T03:03:16.701Z,52.58
2022-10-01T03:03:41.001Z,52.81
2022-10-01T03:04:02.616Z,52.72
2022-10-01T03:04:25.165Z,53.02
2022-10-01T03:04:47.926Z,52.55
2022-10-01T03:05:09.471Z,52.33
2022-10-01T03:05:31.033Z,52.25
2022-10-01T03:05:53.636Z,52.44
2022-10-01T03:06:15.181Z,52.64
2022-10-01T03:06:36.798Z,52.14
2022-10-01T03:07:03.415Z,51.93
2022-10-01T03:07:25.772Z,52.28
2022-10-01T03:07:48.897Z,52.14
2022-10-01T03:08:10.494Z,51.94
2022-10-01T03:08:32.004Z,52.16
2022-10-01T03:08:53.664Z,52.01
2022-10-01T03:09:16.199Z,52.62
2022-10-01T03:09:38.009Z,52.43
2022-10-01T03:09:59.597Z,52.64
2022-10-01T03:10:22.183Z,52.58
2022-10-01T03:10:46.737Z,52.60
2022-10-01T03:11:09.223Z,52.38
2022-10-01T03:11:30.993Z,52.23
2022-10-01T03:11:53.736Z,52.48
2022-10-01T03:12:16.776Z,52.51
2022-10-01T03:12:42.369Z,52.69
2022-10-01T03:13:05.967Z,52.50
2022-10-01T03:13:29.066Z,52.95
2022-10-01T03:13:50.604Z,52.87
2022-10-01T03:14:12.140Z,52.73
2022-10-01T03:14:35.029Z,52.68
2022-10-01T03:14:57.657Z,52.47
2022-10-01T03:15:20.202Z,52.78
2022-10-01T03:15:41.861Z,53.15
2022-10-01T03:16:03.584Z,53.02
2022-10-01T03:16:25.281Z,52.79
2022-10-01T03:16:46.870Z,52.88
2022-10-01T03:17:09.363Z,52.88
2022-10-01T03:17:30.904Z,53.00
2022-10-01T03:17:52.880Z,52.86
2022-10-01T03:18:14.455Z,52.94
2022-10-01T03:18:36.062Z,52.80
2022-10-01T03:18:58.561Z,52.64
2022-10-01T03:19:20.383Z,52.70
2022-10-01T03:19:42.429Z,52.61
2022-10-01T03:20:05.195Z,52.69
2022-10-01T03:20:27.792Z,52.94
2022-10-01T03:20:49.390Z,52.87
2022-10-01T03:21:10.963Z,52.82
2022-10-01T03:21:32.704Z,52.78
2022-10-01T03:21:56.332Z,52.66
2022-10-01T03:22:22.483Z,52.48
2022-10-01T03:22:46.032Z,52.54
2022-10-01T03:23:07.559Z,52.67
2022-10-01T03:23:29.120Z,52.46
2022-10-01T03:23:51.669Z,52.59
2022-10-01T03:24:13.379Z,52.46
2022-10-01T03:24:35.329Z,52.96
2022-10-01T03:24:57.831Z,52.57
2022-10-01T03:25:19.525Z,52.43
2022-10-01T03:25:41.046Z,53.07
2022-10-01T03:26:02.595Z,52.94
2022-10-01T03:26:25.327Z,52.65
2022-10-01T03:26:46.888Z,52.55
2022-10-01T03:27:08.457Z,52.42
2022-10-01T03:27:30.022Z,52.51
2022-10-01T03:27:52.717Z,52.58
2022-10-01T03:28:14.381Z,53.09
2022-10-01T03:28:35.953Z,52.78
2022-10-01T03:28:57.538Z,52.88
2022-10-01T03:29:19.120Z,52.85
2022-10-01T03:29:42.977Z,52.45
2022-10-01T03:30:05.914Z,52.45
2022-10-01T03:30:27.465Z,52.71
2022-10-01T03:30:49.055Z,52.85
2022-10-01T03:31:12.732Z,52.72
2022-10-01T03:31:34.854Z,52.86
2022-10-01T03:31:56.600Z,52.85
2022-10-01T03:32:18.968Z,52.92
2022-10-01T03:32:41.508Z,53.16
2022-10-01T03:33:03.076Z,53.10
2022-10-01T03:33:24.682Z,53.16
2022-10-01T03:33:46.311Z,53.58
2022-10-01T03:34:07.992Z,53.55
2022-10-01T03:34:30.509Z,53.58
2022-10-01T03:34:52.051Z,53.80
2022-10-01T03:35:13.631Z,53.77
2022-10-01T03:35:35.182Z,53.83
2022-10-01T03:35:56.705Z,53.61
2022-10-01T03:36:19.214Z,53.65
2022-10-01T03:36:40.823Z,53.49
2022-10-01T03:37:02.447Z,53.36
2022-10-01T03:37:24.973Z,53.53
2022-10-01T03:37:47.595Z,53.52
2022-10-01T03:38:09.214Z,53.45
2022-10-01T03:38:31.419Z,53.65
2022-10-01T03:38:53.961Z,53.83
2022-10-01T03:39:15.980Z,53.50
2022-10-01T03:39:37.558Z,53.29
2022-10-01T03:39:59.116Z,53.45
2022-10-01T03:40:21.661Z,53.47
2022-10-01T03:40:45.764Z,53.25
2022-10-01T03:41:07.374Z,53.18
2022-10-01T03:41:28.939Z,53.51
2022-10-01T03:41:50.536Z,53.68
2022-10-01T03:42:13.352Z,53.60
2022-10-01T03:42:35.178Z,53.86
2022-10-01T03:42:56.740Z,53.64
2022-10-01T03:43:18.300Z,53.70
2022-10-01T03:43:40.882Z,53.77
2022-10-01T03:44:02.657Z,53.86
2022-10-01T03:44:24.335Z,53.73
2022-10-01T03:44:47.840Z,53.81
2022-10-01T03:45:09.923Z,53.84
2022-10-01T03:45:32.511Z,53.86
2022-10-01T03:45:54.311Z,54.04
2022-10-01T03:46:15.993Z,54.21
2022-10-01T03:46:40.033Z,54.66
2022-10-01T03:47:02.560Z,54.46
2022-10-01T03:47:24.328Z,54.41
2022-10-01T03:47:54.273Z,54.83
2022-10-01T03:48:18.179Z,54.63
2022-10-01T03:48:39.785Z,54.46
2022-10-01T03:49:02.648Z,54.42
2022-10-01T03:49:24.333Z,54.63
2022-10-01T03:49:45.918Z,54.77
2022-10-01T03:50:08.318Z,54.50
2022-10-01T03:50:30.844Z,54.14
2022-10-01T03:50:53.828Z,54.20
2022-10-01T03:51:19.663Z,54.29
2022-10-01T03:51:41.665Z,54.10
2022-10-01T03:52:05.297Z,54.15
2022-10-01T03:52:26.969Z,54.12
2022-10-01T03:52:50.537Z,54.14
2022-10-01T03:53:12.407Z,53.96
2022-10-01T03:53:33.980Z,53.86
2022-10-01T03:53:56.914Z,53.90
2022-10-01T03:54:18.530Z,53.92
2022-10-01T03:54:40.053Z,53.82
2022-10-01T03:55:02.627Z,53.61
2022-10-01T03:55:25.293Z,53.83
2022-10-01T03:55:47.174Z,53.80
2022-10-01T03:56:08.781Z,53.62
2022-10-01T03:56:30.814Z,53.82
2022-10-01T03:56:53.329Z,53.81
2022-10-01T03:57:14.924Z,53.93
2022-10-01T03:57:36.536Z,53.95
2022-10-01T03:57:58.593Z,53.93
2022-10-01T03:58:20.397Z,54.12
2022-10-01T03:58:43.052Z,54.17
2022-10-01T03:59:04.632Z,54.45
2022-10-01T03:59:27.147Z,54.28
2022-10-01T03:59:50.069Z,54.29
2022-10-01T04:00:14.172Z,54.44
2022-10-01T04:00:35.680Z,54.28
2022-10-01T04:00:57.893Z,54.54
2022-10-01T04:01:19.496Z,54.80
2022-10-01T04:01:42.144Z,54.90
2022-10-01T04:02:03.915Z,54.95
2022-10-01T04:02:27.666Z,55.00
2022-10-01T04:02:49.370Z,54.80
2022-10-01T04:03:11.159Z,55.40
2022-10-01T04:03:33.764Z,55.14
2022-10-01T04:03:55.811Z,55.17
2022-10-01T04:04:18.936Z,55.19
2022-10-01T04:04:40.523Z,55.20
2022-10-01T04:05:03.054Z,55.00
2022-10-01T04:05:26.517Z,55.21
2022-10-01T04:05:48.609Z,54.98
2022-10-01T04:06:10.604Z,55.12
2022-10-01T04:06:34.553Z,55.04
2022-10-01T04:06:56.192Z,55.11
2022-10-01T04:07:18.036Z,55.07
2022-10-01T04:07:42.482Z,55.16
2022-10-01T04:08:04.167Z,55.48
2022-10-01T04:08:26.984Z,55.68
2022-10-01T04:08:48.837Z,55.57
2022-10-01T04:09:10.364Z,55.57
2022-10-01T04:09:34.157Z,55.14
2022-10-01T04:09:55.718Z,55.67
2022-10-01T04:10:17.313Z,55.37
2022-10-01T04:10:38.977Z,55.50
2022-10-01T04:11:00.935Z,55.76
2022-10-01T04:11:22.608Z,55.91
2022-10-01T04:11:45.236Z,55.85
2022-10-01T04:12:06.781Z,55.78
2022-10-01T04:12:28.355Z,55.79
2022-10-01T04:12:49.908Z,55.88
2022-10-01T04:13:11.629Z,55.81
2022-10-01T04:13:34.517Z,55.71
2022-10-01T04:13:57.831Z,55.58
2022-10-01T04:14:19.661Z,55.53
2022-10-01T04:14:42.228Z,55.33
2022-10-01T04:15:05.988Z,55.40
2022-10-01T04:15:28.184Z,55.87
2022-10-01T04:15:49.893Z,55.67
2022-10-01T04:16:11.633Z,55.68
2022-10-01T04:16:35.947Z,56.07
2022-10-01T04:16:57.563Z,55.67
2022-10-01T04:17:19.098Z,55.56
2022-10-01T04:17:45.119Z,55.57
2022-10-01T04:18:08.627Z,55.59
2022-10-01T04:18:30.889Z,55.32
2022-10-01T04:18:52.600Z,55.28
2022-10-01T04:19:14.169Z,55.53
2022-10-01T04:19:36.655Z,55.31
2022-10-01T04:20:00.156Z,55.39
2022-10-01T04:20:22.328Z,55.19
2022-10-01T04:20:43.973Z,55.08
2022-10-01T04:21:05.744Z,54.89
2022-10-01T04:21:28.968Z,55.53
2022-10-01T04:21:50.548Z,55.73
2022-10-01T04:22:12.090Z,55.83
2022-10-01T04:22:38.614Z,55.45
2022-10-01T04:23:00.532Z,55.21
2022-10-01T04:23:23.391Z,55.25
2022-10-01T04:23:45.126Z,55.39
2022-10-01T04:24:06.767Z,55.17
2022-10-01T04:24:28.329Z,55.23
2022-10-01T04:24:49.884Z,55.41
2022-10-01T04:25:13.332Z,55.29
2022-10-01T04:25:35.275Z,55.24
2022-10-01T04:25:59.150Z,55.26
2022-10-01T04:26:20.767Z,55.31
2022-10-01T04:26:43.258Z,55.47
2022-10-01T04:27:04.810Z,55.72
2022-10-01T04:27:26.373Z,55.79
2022-10-01T04:27:56.322Z,55.57
2022-10-01T04:28:18.430Z,55.19
2022-10-01T04:28:41.026Z,55.57
2022-10-01T04:29:02.711Z,55.72
2022-10-01T04:29:24.269Z,55.67
2022-10-01T04:29:45.821Z,55.53
2022-10-01T04:30:10.826Z,55.63
2022-10-01T04:30:36.420Z,55.76
2022-10-01T04:31:12.970Z,55.52
2022-10-01T04:31:35.191Z,56.10
2022-10-01T04:31:58.697Z,56.01
2022-10-01T04:32:21.460Z,55.67
2022-10-01T04:32:42.981Z,55.38
2022-10-01T04:33:05.405Z,55.51
2022-10-01T04:33:27.110Z,55.62
2022-10-01T04:33:49.737Z,55.46
2022-10-01T04:34:11.357Z,55.67
2022-10-01T04:34:47.800Z,55.39
2022-10-01T04:35:11.153Z,55.29
2022-10-01T04:35:34.913Z,54.92
2022-10-01T04:35:56.515Z,55.19
2022-10-01T04:36:18.126Z,55.77
2022-10-01T04:36:40.713Z,55.61
2022-10-01T04:37:02.264Z,55.50
2022-10-01T04:37:24.169Z,55.43
2022-10-01T04:37:46.090Z,55.26
2022-10-01T04:38:12.336Z,55.35
2022-10-01T04:38:34.318Z,55.63
2022-10-01T04:39:01.699Z,55.51
2022-10-01T04:39:26.924Z,55.61
2022-10-01T04:39:48.647Z,55.72
2022-10-01T04:40:10.701Z,55.44
2022-10-01T04:40:34.465Z,55.62
2022-10-01T04:40:56.974Z,55.39
2022-10-01T04:41:18.799Z,55.58
2022-10-01T04:41:41.026Z,55.92
2022-10-01T04:42:02.580Z,55.44
2022-10-01T04:42:25.128Z,55.30
2022-10-01T04:42:47.142Z,55.22
2022-10-01T04:43:09.576Z,55.20
2022-10-01T04:43:31.108Z,55.11
2022-10-01T04:43:53.640Z,55.08
2022-10-01T04:44:15.192Z,55.05
2022-10-01T04:44:36.786Z,55.28
2022-10-01T04:44:58.350Z,55.41
2022-10-01T04:45:21.397Z,55.40
2022-10-01T04:45:43.900Z,55.40
2022-10-01T04:46:05.872Z,55.40
2022-10-01T04:46:28.302Z,55.34
2022-10-01T04:46:49.904Z,55.23
2022-10-01T04:47:12.441Z,55.22
2022-10-01T04:47:37.496Z,55.39
2022-10-01T04:47:59.673Z,55.25
2022-10-01T04:48:22.418Z,55.10
2022-10-01T04:48:44.021Z,55.24
2022-10-01T04:49:05.733Z,54.82
2022-10-01T04:49:27.738Z,54.83
2022-10-01T04:49:50.299Z,54.66
2022-10-01T04:50:11.893Z,54.69
2022-10-01T04:50:40.509Z,54.67
2022-10-01T04:51:02.185Z,54.54
2022-10-01T04:51:24.706Z,54.36
2022-10-01T04:51:46.252Z,54.49
2022-10-01T04:52:07.798Z,54.55
2022-10-01T04:52:29.408Z,54.27
2022-10-01T04:52:52.342Z,54.57
2022-10-01T04:53:13.882Z,54.33
2022-10-01T04:53:35.558Z,54.05
2022-10-01T04:53:59.327Z,54.19
2022-10-01T04:54:21.503Z,54.17
2022-10-01T04:54:43.039Z,53.77
2022-10-01T04:55:05.585Z,53.55
2022-10-01T04:55:27.179Z,53.43
2022-10-01T04:55:52.909Z,53.34
2022-10-01T04:56:14.558Z,53.15
2022-10-01T04:56:37.123Z,53.12
2022-10-01T04:56:58.689Z,53.26
2022-10-01T04:57:21.639Z,53.07
2022-10-01T04:57:45.004Z,53.53
2022-10-01T04:58:06.616Z,53.65
2022-10-01T04:58:28.241Z,53.73
2022-10-01T04:58:50.811Z,53.93
2022-10-01T04:59:12.358Z,53.67
2022-10-01T04:59:34.062Z,53.67
2022-10-01T04:59:55.650Z,53.55
2022-10-01T05:00:21.710Z,53.40
2022-10-01T05:00:46.971Z,53.10
2022-10-01T05:01:09.282Z,53.09
2022-10-01T05:01:32.310Z,53.06
2022-10-01T05:01:55.205Z,53.46
2022-10-01T05:02:17.997Z,53.20
2022-10-01T05:02:40.827Z,53.27
2022-10-01T05:03:02.363Z,53.37
2022-10-01T05:03:28.054Z,53.76
2022-10-01T05:03:49.655Z,53.80
2022-10-01T05:04:11.370Z,53.72
2022-10-01T05:04:33.287Z,53.78
2022-10-01T05:04:55.979Z,53.77
2022-10-01T05:05:22.260Z,54.07
2022-10-01T05:05:43.908Z,54.16
2022-10-01T05:06:06.810Z,53.85
2022-10-01T05:06:28.482Z,54.08
2022-10-01T05:06:51.030Z,53.95
2022-10-01T05:07:12.617Z,54.32
2022-10-01T05:07:35.225Z,53.95
2022-10-01T05:07:56.749Z,53.77
2022-10-01T05:08:19.268Z,53.68
2022-10-01T05:08:43.144Z,53.55
2022-10-01T05:09:04.721Z,53.34
2022-10-01T05:09:26.290Z,53.31
2022-10-01T05:09:48.785Z,53.56
2022-10-01T05:10:13.110Z,53.34
2022-10-01T05:10:35.411Z,53.29
2022-10-01T05:10:58.858Z,53.18
2022-10-01T05:11:21.376Z,53.61
2022-10-01T05:11:43.101Z,53.71
2022-10-01T05:12:04.770Z,53.96
2022-10-01T05:12:27.170Z,53.68
2022-10-01T05:12:49.526Z,53.33